Time;durP1;ratioP1;P1;durP2;ratioP2;P2;SDS_P1;SDS_P2;PMS_P1;PMS_P2;Temp;Humidity;BMP_temperature;BMP_pressure;BME280_temperature;BME280_humidity;BME280_pressure;Samples;Min_cycle;Max_cycle;Signal;HPM_P1;HPM_P2
2023/12/24 00:00:20;;;;;;;9.18;4.10;;;17.90;61.80;;;;;;5114140;28;20200;-62
2023/12/24 00:02:45;;;;;;;11.52;4.10;;;17.90;61.70;;;;;;5113578;28;20928;-62
2023/12/24 00:05:11;;;;;;;5.85;3.35;;;17.90;61.90;;;;;;5114498;28;20188;-62
2023/12/24 00:07:36;;;;;;;8.05;3.80;;;17.90;61.90;;;;;;5113815;28;20203;-62
2023/12/24 00:10:02;;;;;;;5.82;2.60;;;17.90;61.70;;;;;;5112924;28;20541;-63
2023/12/24 00:12:28;;;;;;;5.57;3.38;;;17.80;61.80;;;;;;5113660;28;20180;-63
2023/12/24 00:14:54;;;;;;;6.38;2.88;;;17.80;61.80;;;;;;5113879;28;20169;-62
2023/12/24 00:17:20;;;;;;;5.35;3.20;;;17.80;61.90;;;;;;5112749;28;20301;-62
2023/12/24 00:19:45;;;;;;;6.15;3.42;;;17.80;61.90;;;;;;5113816;28;20200;-63
2023/12/24 00:22:11;;;;;;;5.80;3.33;;;17.80;61.80;;;;;;5114067;28;20188;-62
2023/12/24 00:24:37;;;;;;;4.82;2.72;;;17.80;62.00;;;;;;5113110;28;20214;-62
2023/12/24 00:27:02;;;;;;;5.25;2.80;;;17.80;61.80;;;;;;5101174;28;20292;-63
2023/12/24 00:29:28;;;;;;;5.55;3.10;;;17.80;62.00;;;;;;5092750;28;20176;-62
2023/12/24 00:31:53;;;;;;;4.38;2.90;;;17.70;61.80;;;;;;5092988;28;20181;-63
2023/12/24 00:34:19;;;;;;;6.10;3.10;;;17.70;62.00;;;;;;5093131;28;20169;-62
2023/12/24 00:36:44;;;;;;;6.97;3.20;;;17.70;62.00;;;;;;5093384;28;20346;-62
2023/12/24 00:39:10;;;;;;;6.28;3.05;;;17.70;61.90;;;;;;5092603;28;20174;-62
2023/12/24 00:41:39;;;;;;;4.30;3.03;;;17.70;61.90;;;;;;5093024;28;20181;-62
2023/12/24 00:44:04;;;;;;;6.13;3.03;;;17.70;61.80;;;;;;5092547;28;20605;-62
2023/12/24 00:46:30;;;;;;;5.43;2.83;;;17.70;61.90;;;;;;5092428;28;20182;-62
2023/12/24 00:48:55;;;;;;;3.97;2.70;;;17.70;61.80;;;;;;5093328;28;20178;-62
2023/12/24 00:51:21;;;;;;;7.43;2.88;;;17.60;61.60;;;;;;5086495;28;20182;-62
2023/12/24 00:53:46;;;;;;;6.57;2.95;;;17.60;61.80;;;;;;5109982;28;20220;-63
2023/12/24 00:56:12;;;;;;;5.90;2.78;;;17.60;61.70;;;;;;5113162;28;20212;-62
2023/12/24 00:58:37;;;;;;;4.90;2.72;;;17.60;61.90;;;;;;5112006;28;20546;-62
2023/12/24 01:01:03;;;;;;;3.80;2.13;;;17.60;61.50;;;;;;5111975;28;20173;-62
2023/12/24 01:03:29;;;;;;;3.50;2.28;;;17.60;61.70;;;;;;5112340;28;20172;-62
2023/12/24 01:05:54;;;;;;;4.93;2.45;;;17.60;61.70;;;;;;5112356;28;20201;-62
2023/12/24 01:08:20;;;;;;;4.90;2.42;;;17.60;61.70;;;;;;5113107;28;20193;-63
2023/12/24 01:10:47;;;;;;;5.13;2.75;;;17.60;62.20;;;;;;5113238;28;20587;-63
2023/12/24 01:13:18;;;;;;;5.15;2.40;;;17.50;61.20;;;;;;5112317;28;20543;-63
2023/12/24 01:15:45;;;;;;;5.75;2.20;;;17.50;61.30;;;;;;5112853;28;20598;-62
2023/12/24 01:18:10;;;;;;;4.97;2.33;;;17.50;61.30;;;;;;5113081;28;20184;-61
2023/12/24 01:20:36;;;;;;;3.53;2.33;;;17.50;61.30;;;;;;5111722;28;20541;-62
2023/12/24 01:23:03;;;;;;;2.90;1.83;;;17.50;61.20;;;;;;5112803;28;20649;-62
2023/12/24 01:25:28;;;;;;;5.85;2.45;;;17.50;61.00;;;;;;5112365;28;20176;-63
2023/12/24 01:27:54;;;;;;;3.28;2.38;;;17.50;61.10;;;;;;5112025;28;20169;-63
2023/12/24 01:30:20;;;;;;;2.45;1.63;;;17.50;61.10;;;;;;5112625;28;20695;-63
2023/12/24 01:32:45;;;;;;;4.13;2.45;;;17.50;61.20;;;;;;5112645;28;20184;-62
2023/12/24 01:35:11;;;;;;;4.82;2.08;;;17.40;61.10;;;;;;5112075;28;20204;-62
2023/12/24 01:37:36;;;;;;;2.85;2.13;;;17.40;61.00;;;;;;5112042;28;20311;-62
2023/12/24 01:40:02;;;;;;;4.15;2.50;;;17.40;60.90;;;;;;5112784;28;20169;-62
2023/12/24 01:42:27;;;;;;;4.65;2.13;;;17.50;61.00;;;;;;5111441;28;20173;-62
2023/12/24 01:44:53;;;;;;;3.53;2.35;;;17.40;60.90;;;;;;5112729;28;20539;-62
2023/12/24 01:47:18;;;;;;;6.90;2.60;;;17.40;60.90;;;;;;5111624;28;20703;-62
2023/12/24 01:49:45;;;;;;;4.10;2.17;;;17.40;61.00;;;;;;5112538;28;20173;-63
2023/12/24 01:52:11;;;;;;;3.65;2.00;;;17.40;61.00;;;;;;5112568;28;20217;-62
2023/12/24 01:54:36;;;;;;;3.10;2.00;;;17.40;61.00;;;;;;5093503;28;20173;-62
2023/12/24 01:57:02;;;;;;;4.07;2.30;;;17.40;61.00;;;;;;5112325;28;20288;-62
2023/12/24 01:59:28;;;;;;;3.90;1.90;;;17.40;60.80;;;;;;5099206;28;20650;-62
2023/12/24 02:01:53;;;;;;;5.18;1.95;;;17.40;60.90;;;;;;5100216;28;20172;-62
2023/12/24 02:04:19;;;;;;;3.17;1.67;;;17.40;61.00;;;;;;5118370;28;20168;-61
2023/12/24 02:06:44;;;;;;;3.60;2.13;;;17.40;61.00;;;;;;5100966;28;20209;-62
2023/12/24 02:09:10;;;;;;;2.78;1.65;;;17.30;61.00;;;;;;5118368;28;20179;-63
2023/12/24 02:11:35;;;;;;;3.70;2.25;;;17.30;61.00;;;;;;5118955;28;20272;-63
2023/12/24 02:14:02;;;;;;;4.97;2.25;;;17.40;61.10;;;;;;5119174;28;20535;-62
2023/12/24 02:16:28;;;;;;;4.22;2.20;;;17.30;61.00;;;;;;5117918;28;20215;-62
2023/12/24 02:18:54;;;;;;;2.75;1.75;;;17.30;61.20;;;;;;5119129;28;20536;-62
2023/12/24 02:21:19;;;;;;;2.67;2.20;;;17.30;62.00;;;;;;5100850;28;20165;-62
2023/12/24 02:23:45;;;;;;;4.55;2.03;;;17.30;61.20;;;;;;5118380;28;20248;-62
2023/12/24 02:26:32;;;;;;;2.60;1.50;;;17.30;61.10;;;;;;5119032;28;20618;-63
2023/12/24 02:29:12;;;;;;;2.78;1.63;;;17.30;61.20;;;;;;5118495;28;20196;-62
2023/12/24 02:31:38;;;;;;;3.67;1.75;;;17.30;61.30;;;;;;5099870;28;20179;-62
2023/12/24 02:34:04;;;;;;;2.90;2.03;;;17.30;61.30;;;;;;5100827;28;20252;-62
2023/12/24 02:36:32;;;;;;;3.60;1.77;;;17.20;61.20;;;;;;5082559;28;20299;-62
2023/12/24 02:38:58;;;;;;;2.75;1.75;;;17.30;61.30;;;;;;5100435;28;20592;-62
2023/12/24 02:41:24;;;;;;;2.40;1.58;;;17.20;61.30;;;;;;5118616;28;20161;-62
2023/12/24 02:43:50;;;;;;;4.32;1.80;;;17.20;61.30;;;;;;5118115;28;20180;-62
2023/12/24 02:46:15;;;;;;;4.35;1.90;;;17.20;61.30;;;;;;5118542;28;20177;-63
2023/12/24 02:48:41;;;;;;;2.80;1.63;;;17.20;61.30;;;;;;5118882;28;20180;-63
2023/12/24 02:51:06;;;;;;;2.88;1.65;;;17.20;61.40;;;;;;5117444;28;20658;-63
2023/12/24 02:53:32;;;;;;;3.15;1.80;;;17.20;61.50;;;;;;5118335;28;20236;-63
2023/12/24 02:55:57;;;;;;;2.65;1.70;;;17.20;61.50;;;;;;5118930;28;20208;-63
2023/12/24 02:58:23;;;;;;;2.80;1.90;;;17.20;61.60;;;;;;5117876;28;20237;-62
2023/12/24 03:00:48;;;;;;;1.70;1.60;;;17.20;61.60;;;;;;5118950;28;20598;-63
2023/12/24 03:03:14;;;;;;;2.90;1.60;;;17.20;61.60;;;;;;5109709;28;20173;-62
2023/12/24 03:05:39;;;;;;;2.75;1.65;;;17.20;61.60;;;;;;5116868;28;20553;-63
2023/12/24 03:08:05;;;;;;;2.90;1.80;;;17.10;61.60;;;;;;5117822;28;20165;-63
2023/12/24 03:10:31;;;;;;;2.25;1.70;;;17.10;61.60;;;;;;5115169;28;20181;-62
2023/12/24 03:12:56;;;;;;;1.85;1.65;;;17.10;61.70;;;;;;5114089;28;20184;-63
2023/12/24 03:15:22;;;;;;;3.95;1.95;;;17.10;61.80;;;;;;5115022;28;20210;-63
2023/12/24 03:17:47;;;;;;;2.22;1.73;;;17.10;61.80;;;;;;5115369;28;20208;-62
2023/12/24 03:20:13;;;;;;;3.85;1.88;;;17.10;61.80;;;;;;5114626;28;20214;-62
2023/12/24 03:22:38;;;;;;;3.63;1.83;;;17.10;61.80;;;;;;5114981;28;20177;-62
2023/12/24 03:25:04;;;;;;;4.60;2.38;;;17.10;61.80;;;;;;5115432;28;20165;-63
2023/12/24 03:27:29;;;;;;;2.83;1.77;;;17.10;61.80;;;;;;5114275;28;20176;-63
2023/12/24 03:29:55;;;;;;;2.83;1.63;;;17.10;61.90;;;;;;5115269;28;20165;-62
2023/12/24 03:32:20;;;;;;;4.13;1.95;;;17.10;61.90;;;;;;5114804;28;20173;-62
2023/12/24 03:34:46;;;;;;;4.22;1.85;;;17.10;62.00;;;;;;5114346;28;20513;-62
2023/12/24 03:37:11;;;;;;;2.42;1.52;;;17.10;61.90;;;;;;5114913;28;20694;-62
2023/12/24 03:39:37;;;;;;;1.95;1.38;;;17.10;62.00;;;;;;5114148;28;20169;-62
2023/12/24 03:42:02;;;;;;;2.55;1.55;;;17.10;62.00;;;;;;5114262;28;20173;-62
2023/12/24 03:44:28;;;;;;;3.50;1.85;;;17.10;62.00;;;;;;5113558;28;20169;-62
2023/12/24 03:46:53;;;;;;;2.42;1.60;;;17.10;62.10;;;;;;5113599;28;20173;-62
2023/12/24 03:49:20;;;;;;;1.95;1.35;;;17.00;62.00;;;;;;5113388;28;20177;-62
2023/12/24 03:51:47;;;;;;;2.80;1.50;;;17.00;62.00;;;;;;5114570;28;20252;-63
2023/12/24 03:54:13;;;;;;;3.28;1.75;;;17.10;62.10;;;;;;5114159;28;20189;-63
2023/12/24 03:56:38;;;;;;;2.30;1.45;;;17.00;62.10;;;;;;5114550;28;20349;-63
2023/12/24 03:59:04;;;;;;;3.13;1.40;;;17.00;62.10;;;;;;5114615;28;20373;-62
2023/12/24 04:01:29;;;;;;;2.75;2.13;;;17.00;62.10;;;;;;5113536;28;20169;-62
2023/12/24 04:03:55;;;;;;;1.52;1.20;;;17.00;62.20;;;;;;5114413;28;20667;-62
2023/12/24 04:06:20;;;;;;;3.00;1.92;;;17.00;62.20;;;;;;5114448;28;20561;-62
2023/12/24 04:08:46;;;;;;;2.50;1.55;;;16.90;62.20;;;;;;5113777;28;20165;-63
2023/12/24 04:11:12;;;;;;;2.47;1.80;;;17.00;62.30;;;;;;5114311;28;20177;-63
2023/12/24 04:13:38;;;;;;;3.85;1.73;;;17.00;62.30;;;;;;5113871;28;20552;-62
2023/12/24 04:16:04;;;;;;;2.97;1.55;;;17.00;62.30;;;;;;5113228;28;20681;-62
2023/12/24 04:18:29;;;;;;;2.85;1.42;;;16.90;62.30;;;;;;5113637;28;20173;-62
2023/12/24 04:20:55;;;;;;;4.07;1.75;;;17.00;62.40;;;;;;5113512;28;20226;-63
2023/12/24 04:23:20;;;;;;;3.88;1.80;;;16.90;62.40;;;;;;5112346;28;20253;-63
2023/12/24 04:25:46;;;;;;;2.67;1.48;;;16.90;62.40;;;;;;5113991;28;20696;-63
2023/12/24 04:28:11;;;;;;;2.40;1.50;;;17.00;62.50;;;;;;5114070;28;20188;-62
2023/12/24 04:30:37;;;;;;;2.63;1.67;;;16.90;62.50;;;;;;5112914;28;20165;-62
2023/12/24 04:33:03;;;;;;;2.45;1.40;;;16.90;62.50;;;;;;5113827;28;20628;-62
2023/12/24 04:35:29;;;;;;;3.45;1.60;;;17.00;63.40;;;;;;5113809;28;20180;-62
2023/12/24 04:37:55;;;;;;;1.80;1.40;;;16.90;62.50;;;;;;5113235;28;20567;-62
2023/12/24 04:40:20;;;;;;;2.00;1.58;;;16.90;62.60;;;;;;5113368;28;20768;-61
2023/12/24 04:42:46;;;;;;;2.60;1.20;;;16.90;62.60;;;;;;5113120;28;20263;-62
2023/12/24 04:45:12;;;;;;;1.35;1.25;;;16.90;62.70;;;;;;5112635;28;20585;-62
2023/12/24 04:47:37;;;;;;;3.35;1.40;;;16.90;62.60;;;;;;5112599;28;20173;-62
2023/12/24 04:50:03;;;;;;;2.40;1.45;;;16.90;62.70;;;;;;5112459;28;20173;-62
2023/12/24 04:52:35;;;;;;;2.15;1.45;;;16.90;62.70;;;;;;5112579;28;20266;-62
2023/12/24 04:55:04;;;;;;;2.53;1.60;;;16.90;62.70;;;;;;5113632;28;20172;-62
2023/12/24 04:57:30;;;;;;;2.42;1.25;;;16.90;62.70;;;;;;5112297;28;20691;-62
2023/12/24 04:59:55;;;;;;;2.08;1.23;;;16.90;62.70;;;;;;5113452;28;20184;-61
2023/12/24 05:02:21;;;;;;;2.03;1.50;;;16.90;62.80;;;;;;5113020;28;20172;-61
2023/12/24 05:04:46;;;;;;;1.20;1.10;;;16.90;62.80;;;;;;5112671;28;20176;-62
2023/12/24 05:07:12;;;;;;;1.80;1.17;;;16.90;62.80;;;;;;5113282;28;20531;-62
2023/12/24 05:09:44;;;;;;;1.83;1.38;;;16.90;62.80;;;;;;5113036;28;20172;-63
2023/12/24 05:12:09;;;;;;;1.25;1.02;;;16.80;62.80;;;;;;5112701;28;20264;-63
2023/12/24 05:14:35;;;;;;;1.38;1.10;;;16.90;62.90;;;;;;5112604;28;20268;-62
2023/12/24 05:17:02;;;;;;;1.42;1.20;;;16.90;62.90;;;;;;5111806;28;20219;-62
2023/12/24 05:19:28;;;;;;;1.92;1.15;;;16.80;62.80;;;;;;5111270;28;20176;-62
2023/12/24 05:21:53;;;;;;;1.60;1.13;;;16.80;62.90;;;;;;5113004;28;20539;-62
2023/12/24 05:24:19;;;;;;;1.80;1.10;;;16.80;62.90;;;;;;5112812;28;20260;-63
2023/12/24 05:26:44;;;;;;;1.50;1.00;;;16.80;62.90;;;;;;5112153;28;20213;-62
2023/12/24 05:29:10;;;;;;;1.35;1.05;;;16.80;63.00;;;;;;5112795;28;20260;-62
2023/12/24 05:31:41;;;;;;;2.05;1.50;;;16.80;63.00;;;;;;5112173;28;20286;-62
2023/12/24 05:34:08;;;;;;;2.20;1.15;;;16.80;63.00;;;;;;5111693;28;20180;-62
2023/12/24 05:36:33;;;;;;;1.00;0.88;;;16.80;63.00;;;;;;5112510;28;20200;-61
2023/12/24 05:38:59;;;;;;;1.42;1.08;;;16.80;63.20;;;;;;5112449;28;20515;-62
2023/12/24 05:41:25;;;;;;;1.52;0.88;;;16.80;63.60;;;;;;5111733;28;20180;-62
2023/12/24 05:43:50;;;;;;;2.08;1.02;;;16.80;63.10;;;;;;5112135;28;20173;-62
2023/12/24 05:46:16;;;;;;;3.20;1.25;;;16.80;63.10;;;;;;5111939;28;20172;-62
2023/12/24 05:48:41;;;;;;;1.10;1.00;;;16.80;63.20;;;;;;5112007;28;20527;-62
2023/12/24 05:51:07;;;;;;;2.25;0.98;;;16.80;63.20;;;;;;5111682;28;20312;-62
2023/12/24 05:53:33;;;;;;;1.52;1.10;;;16.80;63.20;;;;;;5111598;28;20642;-62
2023/12/24 05:55:59;;;;;;;1.38;0.88;;;16.80;63.20;;;;;;5112569;28;20180;-62
2023/12/24 05:58:25;;;;;;;1.20;0.98;;;16.80;64.10;;;;;;5112224;28;20273;-62
2023/12/24 06:00:51;;;;;;;1.02;0.80;;;16.80;63.30;;;;;;5111819;28;20184;-61
2023/12/24 06:03:17;;;;;;;0.90;0.90;;;16.80;63.30;;;;;;5111590;28;20542;-61
2023/12/24 06:05:42;;;;;;;0.85;0.82;;;16.80;63.30;;;;;;5112096;28;20161;-62
2023/12/24 06:08:08;;;;;;;1.58;0.98;;;16.80;63.30;;;;;;5111823;28;20177;-62
2023/12/24 06:10:34;;;;;;;1.98;0.98;;;16.80;63.30;;;;;;5112227;28;20654;-63
2023/12/24 06:12:59;;;;;;;1.02;0.80;;;16.80;63.40;;;;;;5112341;28;20543;-62
2023/12/24 06:15:25;;;;;;;2.20;1.00;;;16.80;63.30;;;;;;5111370;28;20230;-62
2023/12/24 06:17:50;;;;;;;2.40;0.98;;;16.70;63.30;;;;;;5112028;28;20209;-62
2023/12/24 06:20:16;;;;;;;1.65;1.00;;;16.70;63.30;;;;;;5111204;28;20647;-61
2023/12/24 06:22:42;;;;;;;1.00;0.90;;;16.70;63.40;;;;;;5111756;28;20232;-62
2023/12/24 06:25:07;;;;;;;0.70;0.70;;;16.70;63.40;;;;;;5112282;28;20520;-62
2023/12/24 06:27:34;;;;;;;1.27;0.88;;;16.70;63.40;;;;;;5111356;28;20174;-63
2023/12/24 06:30:00;;;;;;;1.13;0.70;;;16.70;63.40;;;;;;5111501;28;20188;-61
2023/12/24 06:32:25;;;;;;;0.80;0.80;;;16.70;63.40;;;;;;5112197;28;20264;-61
2023/12/24 06:34:51;;;;;;;1.40;0.98;;;16.70;63.50;;;;;;5112337;28;20252;-61
2023/12/24 06:37:16;;;;;;;2.40;1.10;;;16.70;63.40;;;;;;5111228;28;20566;-62
2023/12/24 06:39:42;;;;;;;0.75;0.75;;;16.70;63.40;;;;;;5111570;28;20526;-61
2023/12/24 06:42:07;;;;;;;0.65;0.65;;;16.70;63.50;;;;;;5111820;28;20173;-61
2023/12/24 06:44:33;;;;;;;1.45;0.95;;;16.70;63.50;;;;;;5111115;28;20178;-62
2023/12/24 06:46:58;;;;;;;1.13;0.70;;;16.70;63.50;;;;;;5116207;28;20259;-61
2023/12/24 06:49:24;;;;;;;1.65;0.80;;;16.70;63.60;;;;;;5115892;28;20624;-62
2023/12/24 06:51:49;;;;;;;1.20;0.90;;;16.70;63.60;;;;;;5114594;28;20176;-62
2023/12/24 06:54:15;;;;;;;1.02;0.88;;;16.70;63.60;;;;;;5115132;28;20524;-61
2023/12/24 06:56:40;;;;;;;0.70;0.70;;;16.70;63.60;;;;;;5114829;28;20583;-62
2023/12/24 06:59:06;;;;;;;0.80;0.80;;;16.70;63.60;;;;;;5115615;28;20177;-61
2023/12/24 07:01:31;;;;;;;1.48;0.82;;;16.70;63.60;;;;;;5115690;28;20514;-61
2023/12/24 07:03:57;;;;;;;1.13;0.75;;;16.60;63.50;;;;;;5115234;28;20854;-62
2023/12/24 07:06:23;;;;;;;1.80;0.90;;;16.60;63.60;;;;;;5114893;28;20176;-62
2023/12/24 07:08:49;;;;;;;1.45;0.90;;;16.70;63.70;;;;;;5114670;28;20232;-62
2023/12/24 07:11:14;;;;;;;0.90;0.70;;;16.70;63.80;;;;;;5113806;28;20161;-62
2023/12/24 07:13:40;;;;;;;1.58;1.10;;;16.70;63.70;;;;;;5115380;28;20670;-62
2023/12/24 07:16:06;;;;;;;0.80;0.70;;;16.60;63.60;;;;;;5115445;28;20187;-62
2023/12/24 07:18:31;;;;;;;1.35;0.75;;;16.70;63.70;;;;;;5114226;28;20540;-61
2023/12/24 07:20:57;;;;;;;1.20;0.90;;;16.70;63.70;;;;;;5114557;28;20880;-62
2023/12/24 07:23:22;;;;;;;1.48;0.80;;;16.60;63.70;;;;;;5114782;28;20208;-62
2023/12/24 07:25:48;;;;;;;1.30;0.90;;;16.60;63.70;;;;;;5113995;28;20764;-63
2023/12/24 07:28:13;;;;;;;1.20;0.80;;;16.60;63.70;;;;;;5114575;28;20181;-62
2023/12/24 07:30:39;;;;;;;1.52;0.80;;;16.60;63.70;;;;;;5115390;28;20169;-62
2023/12/24 07:33:05;;;;;;;0.60;0.60;;;16.60;63.80;;;;;;5114567;28;20175;-62
2023/12/24 07:35:31;;;;;;;1.50;0.80;;;16.60;63.80;;;;;;5114931;28;20251;-62
2023/12/24 07:37:56;;;;;;;0.57;0.57;;;16.60;63.90;;;;;;5114657;28;20209;-62
2023/12/24 07:40:22;;;;;;;0.80;0.70;;;16.60;63.90;;;;;;5114036;28;20568;-61
2023/12/24 07:42:47;;;;;;;0.65;0.65;;;16.60;63.90;;;;;;5114939;28;20169;-62
2023/12/24 07:45:13;;;;;;;0.65;0.65;;;16.60;63.90;;;;;;5114822;28;20175;-61
2023/12/24 07:47:38;;;;;;;0.85;0.80;;;16.60;63.90;;;;;;5113762;28;20226;-62
2023/12/24 07:50:07;;;;;;;0.70;0.68;;;16.60;63.90;;;;;;5114471;28;20201;-61
2023/12/24 07:52:32;;;;;;;1.17;0.90;;;16.60;64.00;;;;;;5113474;28;20225;-62
2023/12/24 07:54:58;;;;;;;1.25;0.70;;;16.60;64.00;;;;;;5114020;28;20175;-62
2023/12/24 07:57:23;;;;;;;1.00;0.80;;;16.60;64.00;;;;;;5113802;28;20204;-62
2023/12/24 07:59:49;;;;;;;3.17;0.82;;;16.60;64.10;;;;;;5114609;28;20197;-62
2023/12/24 08:02:14;;;;;;;2.22;0.80;;;16.60;64.20;;;;;;5113561;28;20252;-62
2023/12/24 08:04:40;;;;;;;1.38;0.80;;;16.60;64.10;;;;;;5114514;28;20568;-61
2023/12/24 08:07:06;;;;;;;1.52;0.85;;;16.60;64.20;;;;;;5113859;28;20695;-62
2023/12/24 08:09:31;;;;;;;3.60;0.60;;;16.60;64.20;;;;;;5114027;28;20591;-62
2023/12/24 08:11:57;;;;;;;0.88;0.70;;;16.60;64.20;;;;;;5114243;28;20206;-63
2023/12/24 08:14:22;;;;;;;1.50;0.70;;;16.60;64.20;;;;;;5113531;28;20615;-62
2023/12/24 08:16:48;;;;;;;1.27;0.73;;;16.60;64.30;;;;;;5114389;28;20299;-62
2023/12/24 08:19:13;;;;;;;2.58;0.98;;;16.60;64.40;;;;;;5114088;28;20264;-61
2023/12/24 08:21:39;;;;;;;0.70;0.70;;;16.60;64.40;;;;;;5113654;28;20268;-62
2023/12/24 08:24:05;;;;;;;0.98;0.75;;;16.60;64.50;;;;;;5114023;28;20268;-61
2023/12/24 08:26:30;;;;;;;1.73;0.70;;;16.60;64.50;;;;;;5113487;28;20615;-61
2023/12/24 08:28:56;;;;;;;1.30;0.57;;;16.60;64.60;;;;;;5112646;28;20181;-62
2023/12/24 08:31:21;;;;;;;1.60;0.75;;;16.50;64.50;;;;;;5113645;28;20518;-61
2023/12/24 08:33:47;;;;;;;0.80;0.63;;;16.50;64.60;;;;;;5113941;28;20635;-62
2023/12/24 08:36:12;;;;;;;1.52;0.80;;;16.60;64.70;;;;;;5113045;28;20192;-61
2023/12/24 08:38:38;;;;;;;1.15;0.70;;;16.50;64.70;;;;;;5113579;28;20177;-61
2023/12/24 08:41:03;;;;;;;0.52;0.52;;;16.50;64.70;;;;;;5113731;28;20181;-61
2023/12/24 08:43:29;;;;;;;1.40;0.82;;;16.50;64.70;;;;;;5111619;28;20180;-61
2023/12/24 08:45:59;;;;;;;0.77;0.63;;;16.50;64.70;;;;;;5113700;28;20180;-62
2023/12/24 08:48:24;;;;;;;0.80;0.65;;;16.50;64.70;;;;;;5113428;28;20165;-62
2023/12/24 08:50:50;;;;;;;1.45;0.70;;;16.50;64.70;;;;;;5112965;28;20196;-61
2023/12/24 08:53:15;;;;;;;1.35;0.70;;;16.50;64.70;;;;;;5113129;28;20315;-62
2023/12/24 08:55:41;;;;;;;1.02;0.60;;;16.50;65.60;;;;;;5113326;28;20172;-62
2023/12/24 08:58:07;;;;;;;1.88;0.80;;;16.50;64.80;;;;;;5112869;28;20215;-61
2023/12/24 09:00:33;;;;;;;0.85;0.70;;;16.50;64.70;;;;;;5113290;28;20256;-61
2023/12/24 09:02:59;;;;;;;0.90;0.52;;;16.50;64.70;;;;;;5113111;28;20646;-61
2023/12/24 09:05:24;;;;;;;2.03;0.70;;;16.50;64.70;;;;;;5112317;28;20252;-62
2023/12/24 09:07:50;;;;;;;1.67;0.80;;;16.50;64.80;;;;;;5112677;28;20181;-62
2023/12/24 09:10:15;;;;;;;1.25;0.80;;;16.60;64.80;;;;;;5112495;28;20381;-63
2023/12/24 09:12:41;;;;;;;1.02;0.63;;;16.50;64.80;;;;;;5113223;28;20177;-64
2023/12/24 09:15:07;;;;;;;0.90;0.55;;;16.50;64.80;;;;;;5113142;28;20168;-62
2023/12/24 09:17:32;;;;;;;1.38;0.60;;;16.50;64.90;;;;;;5110950;28;20556;-61
2023/12/24 09:19:58;;;;;;;1.23;0.65;;;16.50;64.80;;;;;;5112645;28;20184;-61
2023/12/24 09:22:23;;;;;;;1.63;0.70;;;16.50;64.90;;;;;;5112701;28;20183;-61
2023/12/24 09:24:49;;;;;;;1.15;0.43;;;16.50;64.90;;;;;;5112092;28;20165;-62
2023/12/24 09:27:14;;;;;;;0.90;0.60;;;16.40;64.80;;;;;;5112702;28;20184;-61
2023/12/24 09:29:40;;;;;;;0.80;0.50;;;16.50;65.00;;;;;;5112890;28;20172;-61
2023/12/24 09:32:06;;;;;;;1.48;0.65;;;16.40;64.90;;;;;;5112126;28;20184;-61
2023/12/24 09:34:31;;;;;;;1.13;0.57;;;16.50;64.90;;;;;;5112610;28;20177;-61
2023/12/24 09:36:57;;;;;;;0.73;0.70;;;16.40;64.90;;;;;;5112693;28;20212;-61
2023/12/24 09:39:22;;;;;;;0.98;0.60;;;16.50;65.00;;;;;;5111790;28;20218;-61
2023/12/24 09:41:49;;;;;;;1.08;0.60;;;16.40;64.90;;;;;;5112933;28;20169;-61
2023/12/24 09:44:14;;;;;;;2.25;0.55;;;16.40;65.00;;;;;;5112469;28;20246;-61
2023/12/24 09:46:40;;;;;;;0.68;0.68;;;16.40;65.00;;;;;;5111777;28;20203;-61
2023/12/24 09:49:05;;;;;;;1.95;0.90;;;16.40;65.00;;;;;;5112545;28;20824;-62
2023/12/24 09:51:31;;;;;;;1.20;0.60;;;16.40;65.00;;;;;;5112039;28;20169;-62
2023/12/24 09:53:58;;;;;;;1.75;0.50;;;16.40;65.00;;;;;;5093663;28;20349;-62
2023/12/24 09:56:23;;;;;;;0.75;0.68;;;16.40;65.10;;;;;;5112051;28;20201;-61
2023/12/24 09:58:49;;;;;;;0.82;0.60;;;16.40;65.10;;;;;;5112578;28;20188;-61
2023/12/24 10:01:14;;;;;;;1.30;0.50;;;16.40;65.00;;;;;;5111451;28;20180;-61
2023/12/24 10:03:40;;;;;;;0.82;0.60;;;16.40;65.00;;;;;;5112332;28;20181;-62
2023/12/24 10:06:08;;;;;;;0.50;0.50;;;16.40;65.00;;;;;;5094204;28;20172;-61
2023/12/24 10:08:34;;;;;;;0.88;0.50;;;16.40;65.00;;;;;;5111276;28;20627;-62
2023/12/24 10:11:15;;;;;;;0.80;0.50;;;16.40;65.10;;;;;;5112745;28;20191;-62
2023/12/24 10:13:41;;;;;;;1.17;0.50;;;16.40;65.00;;;;;;5111417;28;20666;-62
2023/12/24 10:16:09;;;;;;;0.52;0.52;;;16.40;65.00;;;;;;5112143;28;20644;-61
2023/12/24 10:18:34;;;;;;;0.60;0.50;;;16.40;65.00;;;;;;5111918;28;20662;-62
2023/12/24 10:21:10;;;;;;;0.65;0.65;;;16.40;65.00;;;;;;5115744;28;20173;-61
2023/12/24 10:23:36;;;;;;;1.45;0.60;;;16.40;65.00;;;;;;5116260;28;20212;-62
2023/12/24 10:26:05;;;;;;;0.57;0.47;;;16.40;65.00;;;;;;5116286;28;20197;-62
2023/12/24 10:28:32;;;;;;;0.98;0.52;;;16.40;65.10;;;;;;5115257;28;20643;-61
2023/12/24 10:31:05;;;;;;;1.10;0.65;;;16.40;65.00;;;;;;5115847;28;20620;-70
2023/12/24 10:33:31;;;;;;;1.08;0.68;;;16.40;65.10;;;;;;5115875;28;20237;-61
2023/12/24 10:35:59;;;;;;;0.98;0.52;;;16.40;65.10;;;;;;5115659;28;20169;-61
2023/12/24 10:38:26;;;;;;;1.70;0.82;;;16.40;65.10;;;;;;5116092;28;20243;-61
2023/12/24 10:40:52;;;;;;;2.13;0.90;;;16.40;65.10;;;;;;5116296;28;20169;-61
2023/12/24 10:43:18;;;;;;;1.30;0.75;;;16.40;65.10;;;;;;5115235;28;20687;-61
2023/12/24 10:45:43;;;;;;;2.40;1.00;;;16.30;65.40;;;;;;5116079;28;20173;-61
2023/12/24 10:48:09;;;;;;;1.00;0.90;;;16.40;65.10;;;;;;5114861;28;20180;-61
2023/12/24 10:50:35;;;;;;;1.33;0.70;;;16.40;65.20;;;;;;5115173;28;20181;-61
2023/12/24 10:53:00;;;;;;;0.80;0.50;;;16.40;65.10;;;;;;5115703;28;20691;-62
2023/12/24 10:55:26;;;;;;;2.08;1.08;;;16.40;65.20;;;;;;5115657;28;20177;-61
2023/12/24 10:58:09;;;;;;;2.67;0.90;;;16.40;65.10;;;;;;5115209;28;20246;-62
2023/12/24 11:00:35;;;;;;;1.33;0.93;;;16.40;65.20;;;;;;5115493;28;20169;-61
2023/12/24 11:03:00;;;;;;;1.23;0.90;;;16.40;65.20;;;;;;5115302;28;20173;-61
2023/12/24 11:05:45;;;;;;;2.22;1.02;;;16.40;65.20;;;;;;5115403;28;20708;-61
2023/12/24 11:08:27;;;;;;;1.58;0.77;;;16.40;65.20;;;;;;5115810;28;20180;-62
2023/12/24 11:10:53;;;;;;;1.48;0.95;;;16.40;66.10;;;;;;5114865;28;20640;-63
2023/12/24 11:13:36;;;;;;;3.15;0.82;;;16.30;65.20;;;;;;5115451;28;20261;-63
2023/12/24 11:16:03;;;;;;;2.50;1.20;;;16.40;65.30;;;;;;5115726;28;20208;-62
2023/12/24 11:18:45;;;;;;;2.13;1.10;;;16.40;65.30;;;;;;5114562;28;20177;-62
2023/12/24 11:21:11;;;;;;;3.33;1.05;;;16.40;65.30;;;;;;5115304;28;20183;-62
2023/12/24 11:23:38;;;;;;;2.75;1.10;;;16.40;65.30;;;;;;5114602;28;20185;-62
2023/12/24 11:26:32;;;;;;;4.80;1.60;;;16.40;65.30;;;;;;5114723;28;20225;-62
2023/12/24 11:29:23;;;;;;;3.47;1.13;;;16.40;65.80;;;;;;5115022;28;20648;-62
2023/12/24 11:31:48;;;;;;;3.25;1.23;;;16.40;65.50;;;;;;5098304;28;20260;-62
2023/12/24 11:34:32;;;;;;;8.02;1.77;;;16.40;65.80;;;;;;5114796;28;20276;-66
2023/12/24 11:37:02;;;;;;;4.18;1.60;;;16.40;66.20;;;;;;5098094;28;20208;-66
2023/12/24 11:39:30;;;;;;;6.80;1.73;;;16.40;65.80;;;;;;5113921;28;20264;-66
2023/12/24 11:41:56;;;;;;;3.78;1.85;;;16.40;66.00;;;;;;5079362;28;20181;-68
2023/12/24 11:44:21;;;;;;;2.72;1.05;;;16.50;66.20;;;;;;5114110;28;20216;-65
2023/12/24 11:46:49;;;;;;;4.53;1.83;;;16.40;66.80;;;;;;5114031;28;20181;-64
2023/12/24 11:49:19;;;;;;;7.45;2.05;;;16.50;66.40;;;;;;5114524;28;20169;-65
2023/12/24 11:51:44;;;;;;;5.82;1.77;;;16.50;66.90;;;;;;5113933;28;20216;-64
2023/12/24 11:54:10;;;;;;;3.88;1.75;;;16.60;66.70;;;;;;5095110;28;20208;-64
2023/12/24 11:56:37;;;;;;;7.65;2.05;;;16.60;66.80;;;;;;5114279;28;20197;-64
2023/12/24 11:59:04;;;;;;;6.65;1.55;;;16.60;67.20;;;;;;5114360;28;20169;-65
2023/12/24 12:01:36;;;;;;;5.95;1.88;;;16.60;67.10;;;;;;5114286;28;20716;-63
2023/12/24 12:04:03;;;;;;;5.70;1.60;;;16.60;67.00;;;;;;5114553;28;20979;-65
2023/12/24 12:06:33;;;;;;;4.32;1.55;;;16.60;67.20;;;;;;5113354;28;20184;-65
2023/12/24 12:09:00;;;;;;;4.57;1.85;;;16.70;67.40;;;;;;5114540;28;20181;-65
2023/12/24 12:11:26;;;;;;;4.30;1.90;;;16.70;67.20;;;;;;5114004;28;20659;-65
2023/12/24 12:13:52;;;;;;;6.07;2.05;;;16.70;67.20;;;;;;5113932;28;20260;-64
2023/12/24 12:16:17;;;;;;;4.50;1.60;;;16.70;67.00;;;;;;5114117;28;20168;-65
2023/12/24 12:18:43;;;;;;;6.60;1.90;;;16.70;67.00;;;;;;5114390;28;20175;-64
2023/12/24 12:21:11;;;;;;;5.25;2.00;;;16.70;67.20;;;;;;5113623;28;20200;-64
2023/12/24 12:23:40;;;;;;;3.17;1.67;;;16.70;67.10;;;;;;5113766;28;20631;-64
2023/12/24 12:26:06;;;;;;;4.78;1.70;;;16.70;67.00;;;;;;5113963;28;20181;-64
2023/12/24 12:28:32;;;;;;;5.15;1.92;;;16.70;67.30;;;;;;5113152;28;20169;-66
2023/12/24 12:30:57;;;;;;;5.30;1.88;;;16.70;67.60;;;;;;5113533;28;20184;-66
2023/12/24 12:33:26;;;;;;;5.78;1.98;;;16.60;67.20;;;;;;5113593;28;20174;-70
2023/12/24 12:35:51;;;;;;;4.82;1.70;;;16.70;67.70;;;;;;5113260;28;20177;-66
2023/12/24 12:38:17;;;;;;;9.68;1.85;;;16.70;68.20;;;;;;5113511;28;20209;-68
2023/12/24 12:40:42;;;;;;;5.53;1.63;;;16.70;68.00;;;;;;5113794;28;20230;-64
2023/12/24 12:43:08;;;;;;;12.82;2.83;;;16.70;67.40;;;;;;5111200;28;20553;-67